Time;durP1;ratioP1;P1;durP2;ratioP2;P2;SDS_P1;SDS_P2;PMS_P1;PMS_P2;Temp;Humidity;BMP_temperature;BMP_pressure;BME280_temperature;BME280_humidity;BME280_pressure;Samples;Min_cycle;Max_cycle;Signal;HPM_P1;HPM_P2
2022/04/01 00:01:33;;;;;;;20.67;14.02;;;5.30;99.90;;;2.71;100.00;99098.25;4989664;28;20048;-78
2022/04/01 00:04:00;;;;;;;18.75;14.18;;;5.30;99.90;;;2.67;100.00;99101.44;4989746;28;20039;-78
2022/04/01 00:06:28;;;;;;;18.92;14.40;;;5.30;99.90;;;2.65;100.00;99100.78;4990256;28;20120;-78
2022/04/01 00:08:55;;;;;;;20.00;14.10;;;5.30;99.90;;;2.68;100.00;99105.78;4988385;28;20566;-79
2022/04/01 00:11:22;;;;;;;20.88;14.48;;;5.30;99.90;;;2.67;100.00;99104.97;4988958;28;20269;-78
2022/04/01 00:13:49;;;;;;;17.77;13.85;;;5.30;99.90;;;2.68;100.00;99101.25;4989633;28;20040;-78
2022/04/01 00:16:19;;;;;;;17.38;13.40;;;5.30;99.90;;;2.68;100.00;99108.47;4989275;28;20510;-78
2022/04/01 00:18:46;;;;;;;19.58;13.88;;;5.30;99.90;;;2.69;100.00;99104.78;4989619;28;20058;-79
2022/04/01 00:21:14;;;;;;;19.25;13.02;;;5.30;99.90;;;2.63;100.00;99116.22;4989351;28;20073;-78
2022/04/01 00:23:41;;;;;;;18.42;12.27;;;5.30;99.90;;;2.63;100.00;99126.97;4989570;28;20042;-78
2022/04/01 00:26:09;;;;;;;15.05;10.82;;;5.20;99.80;;;2.55;100.00;99119.72;4989895;28;20046;-78
2022/04/01 00:28:36;;;;;;;17.40;11.38;;;5.20;99.60;;;2.54;100.00;99118.88;4989228;28;20062;-78
2022/04/01 00:31:03;;;;;;;14.45;11.10;;;5.10;99.90;;;2.58;100.00;99119.38;4987654;28;20105;-78
2022/04/01 00:33:32;;;;;;;15.77;10.02;;;5.20;99.90;;;2.64;100.00;99115.19;4988231;28;20043;-78
2022/04/01 00:35:59;;;;;;;13.80;9.23;;;5.20;99.90;;;2.56;100.00;99126.78;4989396;28;20049;-78
2022/04/01 00:38:27;;;;;;;13.43;10.13;;;5.20;99.80;;;2.54;100.00;99124.25;4988140;28;20054;-78
2022/04/01 00:40:54;;;;;;;13.32;10.07;;;5.20;99.60;;;2.49;100.00;99131.13;4987457;28;20149;-78
2022/04/01 00:43:27;;;;;;;12.55;9.13;;;5.10;99.90;;;2.43;100.00;99123.75;4989599;28;20054;-79
2022/04/01 00:45:55;;;;;;;13.15;9.27;;;5.10;99.80;;;2.47;100.00;99130.47;4969036;28;20105;-78
2022/04/01 00:48:22;;;;;;;13.27;10.25;;;5.10;99.90;;;2.50;100.00;99130.13;4979246;28;20153;-79
2022/04/01 00:50:52;;;;;;;15.13;9.75;;;5.10;99.90;;;2.55;100.00;99135.81;4988662;28;20046;-79
2022/04/01 00:53:19;;;;;;;13.73;9.90;;;5.20;99.90;;;2.55;100.00;99135.81;4989591;28;20104;-79
2022/04/01 00:55:48;;;;;;;14.63;9.90;;;5.30;99.90;;;2.55;100.00;99135.81;4988077;28;20589;-78
2022/04/01 00:58:18;;;;;;;14.30;10.10;;;5.20;99.90;;;2.47;100.00;99144.72;4987363;28;20057;-78
2022/04/01 01:00:46;;;;;;;13.15;10.15;;;5.20;99.20;;;2.49;100.00;99133.81;4987398;28;20141;-78
2022/04/01 01:03:13;;;;;;;15.25;9.93;;;5.10;99.50;;;2.48;100.00;99141.03;4989384;28;20046;-78
2022/04/01 01:05:40;;;;;;;14.30;9.77;;;5.10;99.70;;;2.45;100.00;99141.38;4989306;28;20511;-78
2022/04/01 01:08:10;;;;;;;16.75;10.60;;;5.10;99.90;;;2.39;100.00;99146.56;4989632;28;20125;-79
2022/04/01 01:10:37;;;;;;;16.65;11.15;;;5.00;99.40;;;2.32;100.00;99147.25;4988664;28;20050;-79
2022/04/01 01:13:05;;;;;;;14.13;10.13;;;5.00;99.50;;;2.32;100.00;99152.63;4988616;28;20125;-79
2022/04/01 01:15:34;;;;;;;14.57;10.95;;;5.00;99.70;;;2.31;100.00;99142.03;4989262;28;20128;-78
2022/04/01 01:18:01;;;;;;;15.68;10.40;;;5.00;99.60;;;2.32;100.00;99163.34;4989489;28;20121;-78
2022/04/01 01:20:28;;;;;;;14.15;10.30;;;4.90;99.60;;;2.23;100.00;99142.84;4988024;28;20050;-79
2022/04/01 01:22:57;;;;;;;14.43;10.00;;;4.90;99.70;;;2.19;100.00;99156.75;4987773;28;20046;-78
2022/04/01 01:25:27;;;;;;;14.40;9.95;;;4.90;99.90;;;2.14;100.00;99143.84;4987809;28;20042;-78
2022/04/01 01:27:54;;;;;;;15.55;10.20;;;4.80;99.50;;;2.14;100.00;99149.22;4990497;28;20056;-78
2022/04/01 01:30:24;;;;;;;16.50;9.85;;;4.80;99.60;;;2.16;100.00;99149.88;4990821;28;20515;-78
2022/04/01 01:32:51;;;;;;;15.18;10.00;;;4.70;99.90;;;2.12;100.00;99146.69;4991616;28;20070;-79
2022/04/01 01:35:19;;;;;;;15.15;9.90;;;4.70;99.90;;;2.05;100.00;99156.38;4993024;28;20129;-79
2022/04/01 01:37:47;;;;;;;19.08;10.02;;;4.60;99.80;;;2.03;100.00;99147.66;4992439;28;20042;-78
2022/04/01 01:40:14;;;;;;;15.93;10.68;;;4.60;99.90;;;2.03;100.00;99152.19;4990604;28;20137;-79
2022/04/01 01:42:43;;;;;;;19.48;10.00;;;4.50;99.90;;;2.05;100.00;99150.19;4990668;28;20050;-78
2022/04/01 01:45:11;;;;;;;16.90;10.00;;;4.60;99.90;;;2.03;100.00;99146.84;4991421;28;20459;-78
2022/04/01 01:47:39;;;;;;;18.00;10.48;;;4.60;99.90;;;2.01;100.00;99164.94;4991064;28;20050;-78
2022/04/01 01:56:27;;;;;;;14.38;8.95;;;4.60;99.80;;;1.83;100.00;99136.38;4991889;28;20057;-78
2022/04/01 01:59:02;;;;;;;16.02;8.88;;;4.60;99.80;;;1.94;100.00;99137.91;4990996;28;20054;-78
2022/04/01 02:01:29;;;;;;;11.75;7.88;;;4.50;99.90;;;1.93;100.00;99142.44;4990075;28;20050;-78
2022/04/01 02:03:56;;;;;;;13.20;8.10;;;4.70;99.90;;;1.84;100.00;99146.09;4991880;28;20516;-78
2022/04/01 02:06:24;;;;;;;14.23;7.43;;;4.50;99.60;;;1.87;100.00;99153.84;4992087;28;20054;-78
2022/04/01 02:08:53;;;;;;;10.63;7.20;;;4.50;99.90;;;1.93;100.00;99137.06;4990758;28;20086;-78
2022/04/01 02:11:22;;;;;;;11.43;7.43;;;4.50;99.90;;;1.94;100.00;99146.81;4989756;28;20606;-78
2022/04/01 02:13:51;;;;;;;10.25;6.63;;;4.60;99.90;;;1.95;100.00;99145.81;5001152;28;20038;-78
2022/04/01 02:16:21;;;;;;;10.10;6.68;;;4.60;99.60;;;1.92;100.00;99151.50;4990780;28;20507;-79
2022/04/01 02:18:49;;;;;;;10.43;6.13;;;4.50;99.70;;;1.92;100.00;99148.81;4990918;28;20077;-79
2022/04/01 02:21:17;;;;;;;10.15;6.13;;;4.60;99.60;;;1.83;100.00;99154.28;4990134;28;20061;-78
2022/04/01 02:23:47;;;;;;;10.77;6.32;;;4.50;99.30;;;1.75;100.00;99144.38;4989911;28;20577;-78
2022/04/01 02:26:17;;;;;;;8.35;5.57;;;4.40;99.30;;;1.76;100.00;99148.75;4990527;28;20503;-78
2022/04/01 02:28:45;;;;;;;10.98;6.63;;;4.40;99.50;;;1.80;100.00;99155.47;4990011;28;20054;-78
2022/04/01 02:31:14;;;;;;;11.02;5.93;;;4.40;99.90;;;1.80;100.00;99147.44;4989870;28;20050;-78
2022/04/01 02:33:46;;;;;;;9.90;5.88;;;4.40;99.50;;;1.78;100.00;99144.06;4991645;28;20062;-78
2022/04/01 02:36:14;;;;;;;13.52;5.80;;;4.40;99.70;;;1.74;100.00;99153.44;4990683;28;20050;-78
2022/04/01 02:38:43;;;;;;;10.00;5.97;;;4.30;99.60;;;1.77;100.00;99171.88;4988988;28;20046;-78
2022/04/01 02:41:12;;;;;;;8.48;5.57;;;4.40;99.70;;;1.77;100.00;99163.81;4988953;28;20058;-79
2022/04/01 02:43:41;;;;;;;8.32;5.13;;;4.40;99.80;;;1.78;100.00;99176.25;4989674;28;20046;-78
2022/04/01 02:46:10;;;;;;;8.27;4.90;;;4.40;99.40;;;1.74;100.00;99178.41;4990081;28;20701;-78
2022/04/01 02:48:48;;;;;;;8.98;4.97;;;4.40;99.30;;;1.70;100.00;99182.41;4990098;28;20100;-79
2022/04/01 02:51:21;;;;;;;8.95;4.90;;;4.40;99.50;;;1.70;100.00;99185.09;4990367;28;20079;-78
2022/04/01 02:53:50;;;;;;;7.65;5.05;;;4.30;99.30;;;1.76;100.00;99189.00;4990187;28;20507;-78
2022/04/01 02:56:18;;;;;;;7.90;4.70;;;4.40;99.70;;;1.72;100.00;99188.47;4991176;28;20081;-78
2022/04/01 02:58:45;;;;;;;7.45;4.75;;;4.40;99.30;;;1.69;100.00;99187.94;4989904;28;20618;-78
2022/04/01 03:01:13;;;;;;;7.90;4.95;;;4.30;99.60;;;1.67;100.00;99196.13;4988582;28;20050;-78
2022/04/01 03:03:40;;;;;;;6.85;4.93;;;4.30;99.40;;;1.64;100.00;99201.84;4989441;28;20419;-78
2022/04/01 03:06:12;;;;;;;8.85;4.78;;;4.30;99.10;;;1.64;100.00;99200.97;4989853;28;20039;-78
2022/04/01 03:08:41;;;;;;;9.07;4.88;;;4.20;99.10;;;1.68;100.00;99197.84;4989750;28;20058;-78
2022/04/01 03:11:09;;;;;;;6.78;4.43;;;4.20;99.10;;;1.64;100.00;99203.66;4988612;28;20042;-78
2022/04/01 03:13:36;;;;;;;7.30;4.75;;;4.20;98.80;;;1.64;100.00;99198.28;4989169;28;20049;-79
2022/04/01 03:16:43;;;;;;;8.18;4.63;;;4.20;99.20;;;1.66;100.00;99199.00;4964764;28;20054;-78
2022/04/01 03:19:11;;;;;;;7.50;4.45;;;4.20;99.20;;;1.67;100.00;99222.13;4989007;28;20057;-78
2022/04/01 03:21:41;;;;;;;6.65;4.35;;;4.20;98.90;;;1.60;100.00;99203.16;4989669;28;20502;-79
2022/04/01 03:24:11;;;;;;;7.22;4.15;;;4.20;98.80;;;1.61;100.00;99223.59;4989729;28;20073;-79
2022/04/01 03:26:41;;;;;;;7.68;4.50;;;4.10;99.20;;;1.66;100.00;99220.47;4989004;28;20069;-78
2022/04/01 03:29:10;;;;;;;7.13;4.70;;;4.20;99.30;;;1.69;100.00;99220.97;4989421;28;20070;-78
2022/04/01 03:31:39;;;;;;;7.68;4.90;;;4.20;99.20;;;1.63;100.00;99210.88;4988015;28;20141;-78
2022/04/01 03:34:07;;;;;;;7.18;4.72;;;4.30;99.00;;;1.63;100.00;99231.50;4989494;28;20078;-79
2022/04/01 03:36:35;;;;;;;9.15;5.47;;;4.10;98.50;;;1.61;100.00;99222.78;4988476;28;20140;-78
2022/04/01 03:39:05;;;;;;;7.95;5.30;;;4.10;98.70;;;1.53;100.00;99229.75;4987230;28;20102;-78
2022/04/01 03:41:48;;;;;;;12.75;5.65;;;4.20;99.00;;;1.53;100.00;99251.22;4986373;28;20100;-79
2022/04/01 03:44:15;;;;;;;6.95;4.90;;;4.10;98.70;;;1.53;100.00;99251.22;4989048;28;20101;-78
2022/04/01 03:46:51;;;;;;;10.10;6.40;;;4.10;99.20;;;1.55;100.00;99235.81;4989228;28;20129;-78
2022/04/01 03:49:23;;;;;;;9.55;6.15;;;4.10;99.00;;;1.51;100.00;99247.84;4988725;28;20104;-78
2022/04/01 03:51:55;;;;;;;10.18;6.47;;;4.20;99.20;;;1.49;100.00;99244.47;4988097;28;20047;-79
2022/04/01 03:54:26;;;;;;;8.00;5.25;;;4.10;99.10;;;1.47;100.00;99249.16;4988699;28;20042;-79
2022/04/01 03:57:04;;;;;;;9.40;5.85;;;4.00;99.10;;;1.46;100.00;99255.50;4990305;28;20546;-78
2022/04/01 03:59:53;;;;;;;10.07;6.22;;;4.00;99.30;;;1.51;100.00;99268.47;4989574;28;20116;-78
2022/04/01 04:02:43;;;;;;;11.07;6.28;;;4.00;99.10;;;1.48;100.00;99271.44;4989663;28;20049;-78
2022/04/01 04:05:13;;;;;;;8.65;5.50;;;4.00;99.10;;;1.44;100.00;99273.59;4989013;28;20074;-79
2022/04/01 04:07:42;;;;;;;9.88;6.00;;;4.00;99.10;;;1.42;100.00;99267.56;4988929;28;20046;-79
2022/04/01 04:10:14;;;;;;;8.38;5.10;;;4.00;99.10;;;1.44;100.00;99275.44;4988106;28;20053;-78
2022/04/01 04:13:07;;;;;;;8.10;5.25;;;4.00;99.50;;;1.47;100.00;99277.81;4986163;28;20093;-77
2022/04/01 04:15:44;;;;;;;9.07;5.47;;;4.00;99.60;;;1.48;100.00;99271.44;4988986;28;20396;-78
2022/04/01 04:18:18;;;;;;;7.72;4.80;;;4.00;99.50;;;1.50;100.00;99270.28;4988203;28;20522;-77
2022/04/01 04:21:04;;;;;;;7.30;4.57;;;4.10;99.30;;;1.45;100.00;99272.59;4987600;28;20062;-78
2022/04/01 04:23:39;;;;;;;6.85;4.40;;;4.00;99.10;;;1.47;100.00;99275.97;4988080;28;20519;-77
2022/04/01 04:26:13;;;;;;;6.93;4.63;;;4.10;99.20;;;1.48;100.00;99274.13;4988618;28;20459;-78
2022/04/01 04:28:51;;;;;;;5.63;3.67;;;4.20;98.90;;;1.48;100.00;99277.63;4988105;28;20058;-78
2022/04/01 04:31:59;;;;;;;6.13;4.20;;;4.00;98.30;;;1.43;100.00;99289.81;4957927;28;20528;-77
2022/04/01 04:34:31;;;;;;;6.68;4.45;;;4.00;99.00;;;1.41;100.00;99295.38;4988271;28;20510;-77
2022/04/01 04:37:00;;;;;;;7.05;4.80;;;3.90;99.10;;;1.42;100.00;99298.88;4990195;28;20098;-78
2022/04/01 04:39:33;;;;;;;6.63;4.43;;;3.90;99.10;;;1.44;100.00;99310.28;4987672;28;20050;-78
2022/04/01 04:42:04;;;;;;;7.32;4.88;;;4.00;99.10;;;1.43;100.00;99304.09;4997650;23;20050;-78
2022/04/01 04:44:33;;;;;;;8.75;4.82;;;4.00;98.90;;;1.43;100.00;99300.56;4983699;28;20054;-78
2022/04/01 04:47:04;;;;;;;8.13;4.88;;;4.00;98.60;;;1.49;100.00;99300.78;4983037;28;20687;-78
2022/04/01 04:49:33;;;;;;;8.73;5.28;;;4.10;98.70;;;1.52;100.00;99310.34;4967070;28;20385;-78
2022/04/01 04:52:02;;;;;;;8.18;5.45;;;4.10;98.70;;;1.55;100.00;99313.56;4966629;28;20047;-77
2022/04/01 04:54:38;;;;;;;8.52;5.20;;;4.10;98.10;;;1.51;100.00;99314.03;4983474;28;20522;-78
2022/04/01 04:57:29;;;;;;;7.68;5.10;;;4.00;98.30;;;1.48;100.00;99317.03;4963560;28;20483;-78
2022/04/01 04:59:58;;;;;;;8.55;5.53;;;4.00;98.40;;;1.47;100.00;99316.19;4963425;28;20526;-78
2022/04/01 05:03:06;;;;;;;9.18;5.45;;;4.00;98.70;;;1.43;100.00;99311.28;4988243;28;20157;-78
2022/04/01 05:05:43;;;;;;;9.13;5.13;;;4.00;98.40;;;1.44;100.00;99319.16;4971616;28;20050;-78
2022/04/01 05:08:51;;;;;;;8.35;5.00;;;4.00;98.10;;;1.43;100.00;99327.34;4973397;28;20164;-78
2022/04/01 05:11:28;;;;;;;7.65;4.90;;;4.10;98.50;;;1.36;100.00;99327.16;4972130;28;20046;-78
2022/04/01 05:14:04;;;;;;;7.70;4.88;;;3.90;98.10;;;1.40;100.00;99338.41;4972912;28;20051;-78
2022/04/01 05:16:45;;;;;;;7.43;4.75;;;4.00;98.40;;;1.40;100.00;99344.59;4972388;28;20070;-78
2022/04/01 05:19:14;;;;;;;;;;;4.00;98.10;;;1.38;100.00;99335.03;4973374;28;20070;-79
2022/04/01 05:21:57;;;;;;;7.75;4.78;;;3.90;97.80;;;1.35;100.00;99341.53;4970755;28;19929;-77
2022/04/01 05:24:32;;;;;;;6.97;4.35;;;4.00;97.90;;;1.39;100.00;99337.56;4979506;28;20074;-79
2022/04/01 05:27:05;;;;;;;7.82;4.93;;;3.90;98.40;;;1.38;100.00;99360.00;4978143;28;20535;-80
2022/04/01 05:30:12;;;;;;;7.00;4.78;;;4.00;98.00;;;1.36;100.00;99351.28;4969731;28;20255;-79
2022/04/01 05:32:54;;;;;;;7.85;4.95;;;4.00;97.60;;;1.36;99.65;99359.31;4987737;28;20046;-79
2022/04/01 05:35:26;;;;;;;8.57;4.90;;;4.10;97.30;;;1.35;99.76;99365.66;4986429;28;20529;-80
2022/04/01 05:37:55;;;;;;;7.70;4.75;;;4.00;97.30;;;1.32;99.79;99371.34;4976030;28;20105;-80
2022/04/01 05:40:23;;;;;;;8.85;5.05;;;3.90;97.30;;;1.28;99.42;99376.16;4979257;28;20050;-80
2022/04/01 05:42:53;;;;;;;8.02;4.53;;;3.80;97.10;;;1.28;100.00;99378.84;4977860;28;20103;-80
2022/04/01 05:45:44;;;;;;;7.78;4.65;;;3.80;97.70;;;1.28;99.11;99376.16;4978668;28;20057;-80
2022/04/01 05:48:14;;;;;;;8.48;4.78;;;3.80;97.10;;;1.30;99.21;99384.06;4971480;28;20042;-79
2022/04/01 05:50:43;;;;;;;7.68;5.13;;;3.80;97.60;;;1.25;99.92;99387.19;4970278;28;20505;-79
2022/04/01 05:53:14;;;;;;;8.43;5.22;;;3.80;97.70;;;1.26;99.78;99391.56;4970379;28;20049;-80
2022/04/01 05:55:51;;;;;;;8.65;4.70;;;3.80;97.60;;;1.23;100.00;99389.16;4968050;28;20528;-80
2022/04/01 05:58:19;;;;;;;7.57;4.93;;;3.80;98.10;;;1.25;100.00;99400.59;4989424;28;20061;-80
2022/04/01 06:01:10;;;;;;;9.43;5.72;;;3.80;97.50;;;1.30;99.77;99405.50;4986766;28;20035;-79
2022/04/01 06:04:24;;;;;;;7.72;4.70;;;3.80;97.40;;;1.31;99.55;99401.81;4968174;28;20081;-79
2022/04/01 06:07:01;;;;;;;7.32;4.43;;;3.80;97.50;;;1.35;100.00;99395.16;4970454;28;20133;-80
2022/04/01 06:09:37;;;;;;;5.88;4.10;;;3.90;97.90;;;1.35;99.25;99413.91;4979135;28;20046;-80
2022/04/01 06:12:45;;;;;;;7.35;4.03;;;3.90;97.50;;;1.27;99.04;99408.47;4950327;28;20050;-80
2022/04/01 06:16:09;;;;;;;6.93;4.03;;;3.90;97.20;;;1.18;99.34;99404.84;4931674;29;20051;-80
2022/04/01 06:19:25;;;;;;;7.63;4.65;;;3.70;97.10;;;1.20;99.02;99418.09;4929633;29;20056;-80
2022/04/01 06:22:04;;;;;;;6.78;4.32;;;3.70;97.20;;;1.14;98.68;99423.09;4966042;28;20145;-80
2022/04/01 06:24:56;;;;;;;6.18;4.20;;;3.70;96.80;;;1.19;99.54;99427.16;4987555;28;20062;-80
2022/04/01 06:27:39;;;;;;;9.30;4.03;;;3.70;97.70;;;1.20;99.64;99424.34;4967116;28;20047;-80
2022/04/01 06:30:09;;;;;;;6.38;4.10;;;3.80;97.80;;;1.27;99.35;99425.38;4971033;28;20529;-80
2022/04/01 06:32:53;;;;;;;7.93;3.90;;;3.80;97.40;;;1.27;99.06;99433.44;4986414;28;20054;-80
2022/04/01 06:35:30;;;;;;;7.15;4.03;;;3.80;97.20;;;1.24;99.18;99441.78;4970923;28;20057;-80
2022/04/01 06:38:32;;;;;;;7.20;3.88;;;3.80;97.40;;;1.23;98.51;99450.81;4960799;28;20051;-80
2022/04/01 06:41:09;;;;;;;6.60;4.00;;;3.80;97.00;;;1.21;98.73;99442.09;4952921;28;20058;-80
2022/04/01 06:43:45;;;;;;;9.20;4.10;;;3.90;96.90;;;1.22;98.91;99453.63;4970714;28;20083;-80
2022/04/01 06:46:31;;;;;;;6.75;4.00;;;3.80;97.00;;;1.13;97.94;99450.03;4965819;28;20522;-80
2022/04/01 06:49:11;;;;;;;6.65;4.13;;;3.70;96.40;;;1.15;98.39;99462.28;4969908;28;20057;-80
2022/04/01 06:51:58;;;;;;;5.78;3.80;;;3.70;97.00;;;1.14;98.25;99465.97;4966402;28;20613;-80
2022/04/01 06:54:48;;;;;;;7.43;4.00;;;3.70;96.70;;;1.16;98.75;99469.34;4946282;28;20050;-80
2022/04/01 06:57:18;;;;;;;6.28;4.10;;;3.70;97.20;;;1.12;98.85;99459.91;4971345;28;20058;-81
2022/04/01 07:00:11;;;;;;;7.03;3.75;;;3.70;97.00;;;1.10;98.52;99469.91;4965872;28;20548;-80
2022/04/01 07:02:39;;;;;;;6.57;4.03;;;3.70;96.50;;;1.19;99.47;99494.16;4977345;28;20129;-80
2022/04/01 07:05:09;;;;;;;6.28;4.13;;;3.80;97.40;;;1.21;98.66;99476.91;4971836;28;20054;-80
2022/04/01 07:07:38;;;;;;;6.30;4.07;;;3.80;96.70;;;1.20;98.09;99477.94;4971443;28;20439;-80
2022/04/01 07:10:07;;;;;;;5.57;3.70;;;3.80;96.50;;;1.23;97.79;99493.69;4970371;28;20074;-80
2022/04/01 07:12:34;;;;;;;6.13;4.07;;;3.70;96.60;;;1.20;98.22;99482.41;4970831;28;20043;-80
2022/04/01 07:15:01;;;;;;;6.78;4.15;;;3.70;96.70;;;1.13;98.09;99487.56;4971603;28;20113;-81
2022/04/01 07:17:29;;;;;;;6.30;3.97;;;3.70;96.30;;;1.18;97.96;99485.25;4971216;28;20475;-80
2022/04/01 07:19:56;;;;;;;7.15;4.20;;;3.70;96.60;;;1.15;97.41;99491.75;4969325;28;20113;-80
2022/04/01 07:22:25;;;;;;;8.57;4.65;;;3.70;96.40;;;1.19;98.01;99491.47;4971406;28;20043;-81
2022/04/01 07:24:52;;;;;;;7.13;4.10;;;3.70;96.60;;;1.21;97.89;99505.56;4970985;28;20558;-81
2022/04/01 07:27:21;;;;;;;8.10;4.20;;;3.70;96.80;;;1.21;97.81;99498.34;4970856;28;20131;-80
2022/04/01 07:29:48;;;;;;;6.95;4.20;;;3.70;96.50;;;1.17;98.17;99499.66;4969801;28;20125;-80
2022/04/01 07:32:32;;;;;;;7.15;4.32;;;3.80;96.90;;;1.21;97.54;99500.19;4970842;28;20072;-80
2022/04/01 07:35:00;;;;;;;6.95;4.20;;;3.70;96.20;;;1.22;97.25;99512.59;4971271;28;20117;-80
2022/04/01 07:37:30;;;;;;;7.32;4.57;;;3.70;96.50;;;1.22;97.19;99518.81;4971133;28;20042;-80
2022/04/01 07:39:58;;;;;;;7.15;4.70;;;3.70;96.50;;;1.20;97.12;99530.66;4969846;28;20122;-81
2022/04/01 07:42:29;;;;;;;8.07;4.78;;;3.70;96.30;;;1.19;96.69;99515.59;4970606;28;20117;-81
2022/04/01 07:44:57;;;;;;;7.63;4.22;;;3.60;95.70;;;1.18;96.32;99517.41;4971302;28;20122;-81
2022/04/01 07:47:25;;;;;;;8.27;4.43;;;3.60;95.80;;;1.17;96.71;99542.53;4970508;28;20050;-78
2022/04/01 07:49:53;;;;;;;6.28;4.28;;;3.60;96.00;;;1.12;95.95;99524.22;4969226;28;20038;-78
2022/04/01 07:52:22;;;;;;;8.02;4.93;;;3.80;95.70;;;1.12;96.46;99523.38;4970727;28;20049;-79
2022/04/01 07:54:52;;;;;;;7.68;4.55;;;3.60;96.10;;;1.11;95.90;99530.56;4971179;28;20146;-79
2022/04/01 07:57:20;;;;;;;7.80;4.35;;;3.60;95.60;;;1.20;96.21;99547.59;4970565;28;20101;-78
2022/04/01 07:59:48;;;;;;;6.53;4.13;;;3.60;96.10;;;1.20;96.23;99530.66;4969483;28;20419;-78
2022/04/01 08:02:15;;;;;;;7.20;4.13;;;3.60;96.00;;;1.20;95.46;99531.53;4970541;28;20042;-88
2022/04/01 08:04:43;;;;;;;6.70;4.40;;;3.70;95.70;;;1.23;95.91;99535.75;4970883;28;20089;-82
2022/04/01 08:07:13;;;;;;;7.80;4.60;;;3.70;95.90;;;1.27;96.06;99553.19;4970152;28;20451;-83
2022/04/01 08:09:41;;;;;;;8.43;4.50;;;3.70;95.80;;;1.24;95.61;99549.00;4969748;28;20492;-83
2022/04/01 08:12:10;;;;;;;6.40;4.07;;;3.70;95.50;;;1.15;95.44;99552.56;4970110;28;20066;-83
2022/04/01 08:14:39;;;;;;;7.32;4.78;;;3.60;95.50;;;1.21;96.03;99548.44;4970770;28;20050;-83
2022/04/01 08:17:11;;;;;;;7.88;4.05;;;3.70;95.80;;;1.20;96.02;99541.38;4970392;28;20131;-83
2022/04/01 08:19:39;;;;;;;7.07;4.40;;;3.70;95.70;;;1.28;95.97;99565.63;4966864;28;20055;-84
2022/04/01 08:22:06;;;;;;;6.72;4.25;;;3.80;95.90;;;1.36;95.45;99555.00;4968857;28;20050;-84
2022/04/01 08:24:36;;;;;;;7.57;4.80;;;3.80;95.20;;;1.29;95.11;99561.94;4970681;28;20058;-84
2022/04/01 08:27:04;;;;;;;6.90;4.40;;;3.80;95.10;;;1.25;94.79;99563.22;4970328;28;20058;-84
2022/04/01 08:29:34;;;;;;;8.73;4.57;;;3.70;94.80;;;1.22;94.07;99571.56;4969808;28;20484;-84
2022/04/01 08:32:01;;;;;;;8.18;4.22;;;3.70;94.50;;;1.21;94.49;99569.88;4970094;28;20051;-84
2022/04/01 08:34:28;;;;;;;6.68;3.72;;;3.70;94.70;;;1.24;94.76;99580.28;4970730;28;20047;-84
2022/04/01 08:36:56;;;;;;;8.60;4.55;;;3.70;95.00;;;1.29;94.99;99578.84;4971263;28;20057;-84
2022/04/01 08:39:23;;;;;;;7.88;4.78;;;3.80;95.20;;;1.38;95.06;99589.69;4974112;28;20093;-84
2022/04/01 08:41:51;;;;;;;7.22;4.65;;;3.80;95.00;;;1.32;94.84;99596.50;4973598;28;20046;-84
2022/04/01 08:44:22;;;;;;;7.32;4.28;;;3.80;94.80;;;1.32;94.12;99612.56;4974571;28;20047;-84
2022/04/01 08:46:52;;;;;;;8.05;4.28;;;3.80;94.30;;;1.31;94.17;99602.84;4974385;28;20190;-84
2022/04/01 08:49:20;;;;;;;8.05;4.55;;;3.80;94.50;;;1.30;93.40;99599.31;4974072;28;20042;-84
2022/04/01 08:51:48;;;;;;;8.52;4.45;;;3.80;94.10;;;1.32;93.49;99621.47;4972247;28;20051;-83
2022/04/01 08:54:16;;;;;;;9.15;4.38;;;3.80;94.10;;;1.28;93.02;99611.19;4974275;28;20118;-84
2022/04/01 08:56:43;;;;;;;7.75;4.35;;;3.70;93.50;;;1.16;92.23;99611.38;4974173;28;20060;-84
2022/04/01 08:59:11;;;;;;;6.88;4.22;;;3.60;93.20;;;1.15;93.05;99620.38;4973781;28;20039;-85
2022/04/01 09:01:44;;;;;;;8.35;4.47;;;3.60;94.00;;;1.15;93.24;99625.75;4973532;28;20042;-84
2022/04/01 09:04:24;;;;;;;7.55;4.15;;;3.60;93.90;;;1.19;92.50;99620.94;4974099;28;20525;-84
2022/04/01 09:06:52;;;;;;;7.20;4.40;;;3.60;93.70;;;1.24;92.71;99623.16;4973986;28;20045;-84
2022/04/01 09:09:25;;;;;;;9.18;4.75;;;3.60;94.20;;;1.26;92.32;99626.56;4988514;28;20162;-85
2022/04/01 09:12:13;;;;;;;8.63;4.50;;;3.60;93.70;;;1.27;92.66;99633.59;4972504;28;20057;-83
2022/04/01 09:14:41;;;;;;;6.70;4.32;;;3.70;93.70;;;1.27;92.00;99629.09;4972268;28;20294;-82
2022/04/01 09:17:12;;;;;;;7.00;4.30;;;3.70;93.70;;;1.24;91.48;99633.88;4973859;28;20054;-86
2022/04/01 09:19:41;;;;;;;8.25;4.70;;;3.70;92.90;;;1.23;92.16;99632.22;4972061;28;20124;-84
2022/04/01 09:22:26;;;;;;;7.25;4.70;;;3.70;93.50;;;1.27;92.19;99626.41;4973213;28;20089;-84
2022/04/01 09:24:59;;;;;;;9.10;5.18;;;3.70;93.50;;;1.30;91.91;99638.69;4986817;28;20051;-84
2022/04/01 09:27:51;;;;;;;6.97;4.85;;;3.70;93.50;;;1.37;92.45;99639.75;4971620;28;20121;-83
2022/04/01 09:30:19;;;;;;;;;;;3.80;93.70;;;1.38;92.06;99643.31;4971103;28;20069;-84
2022/04/01 09:32:50;;;;;;;7.63;4.90;;;3.80;93.30;;;1.42;91.99;99652.75;4981260;28;20375;-84
2022/04/01 09:35:22;;;;;;;7.65;5.30;;;3.90;93.50;;;1.43;92.10;99649.06;4962441;28;20065;-84
2022/04/01 09:37:52;;;;;;;8.27;4.78;;;3.90;93.40;;;1.50;91.60;99685.84;4988415;28;20058;-85
2022/04/01 09:40:22;;;;;;;9.15;4.80;;;3.90;93.40;;;1.48;91.27;99652.97;4972100;28;20034;-84
2022/04/01 09:42:52;;;;;;;8.55;4.88;;;3.80;92.70;;;1.46;90.98;99657.66;4971534;28;20046;-84
2022/04/01 09:45:20;;;;;;;9.15;4.88;;;4.00;92.60;;;1.39;89.57;99667.31;4973031;28;20460;-84
2022/04/01 09:47:59;;;;;;;6.82;4.32;;;3.90;91.80;;;1.33;90.28;99654.47;4973011;28;20078;-84
2022/04/01 09:50:33;;;;;;;8.90;4.80;;;3.80;92.00;;;1.44;91.56;99650.75;4970111;28;20039;-84
2022/04/01 09:53:09;;;;;;;9.48;5.13;;;3.80;93.30;;;1.52;91.60;99666.94;4971736;28;20042;-84
2022/04/01 09:55:38;;;;;;;8.05;4.88;;;3.90;93.40;;;1.51;90.20;99665.28;4969144;28;20053;-84
2022/04/01 09:58:07;;;;;;;10.30;5.38;;;3.90;92.10;;;1.51;89.82;99663.44;4966415;28;20051;-84
2022/04/01 10:00:36;;;;;;;8.82;4.78;;;3.90;92.00;;;1.51;88.26;99655.38;4970321;28;20075;-84
2022/04/01 10:03:05;;;;;;;7.57;4.38;;;3.80;91.10;;;1.49;88.61;99669.94;4986828;28;20051;-84
2022/04/01 10:05:34;;;;;;;8.98;4.57;;;3.80;91.20;;;1.54;88.54;99671.19;4972609;28;20047;-84
2022/04/01 10:08:04;;;;;;;8.35;4.50;;;3.80;91.70;;;1.58;89.50;99668.19;4971101;28;20144;-84
2022/04/01 10:10:32;;;;;;;10.23;5.10;;;3.80;92.20;;;1.58;88.40;99668.19;4966307;28;20397;-85
2022/04/01 10:13:05;;;;;;;10.30;4.90;;;3.80;91.20;;;1.59;89.35;99675.25;4972333;28;20035;-84
2022/04/01 10:15:33;;;;;;;8.60;4.93;;;3.80;92.00;;;1.63;89.43;99671.28;4972532;28;20070;-84
2022/04/01 10:18:03;;;;;;;10.43;5.15;;;3.90;92.50;;;1.63;88.65;99671.28;4971307;28;20133;-84
2022/04/01 10:20:34;;;;;;;7.67;4.97;;;3.90;91.60;;;1.62;88.44;99680.31;4971980;28;20121;-84
2022/04/01 10:23:04;;;;;;;10.30;5.15;;;3.90;91.20;;;1.54;88.36;99668.50;4970930;28;20057;-85
2022/04/01 10:25:38;;;;;;;7.72;5.25;;;3.90;91.30;;;1.63;88.77;99682.00;4972004;28;20038;-85
2022/04/01 10:28:07;;;;;;;8.98;4.78;;;3.90;92.20;;;1.62;89.11;99697.25;4971215;28;20050;-85
2022/04/01 10:30:35;;;;;;;9.50;5.30;;;4.00;91.90;;;1.64;89.81;99683.69;4971406;28;20830;-84
2022/04/01 10:33:07;;;;;;;9.55;5.28;;;4.00;92.10;;;1.65;89.75;99690.75;4971938;28;20043;-85
2022/04/01 10:35:39;;;;;;;8.02;4.78;;;4.00;91.90;;;1.70;89.72;99683.94;4971761;28;20633;-85
2022/04/01 10:38:16;;;;;;;;;;;4.10;92.10;;;1.73;89.79;99685.47;4972946;28;20050;-83
2022/04/01 10:40:46;;;;;;;9.68;5.28;;;4.10;92.30;;;1.75;89.07;99684.38;4989568;23;19929;-84
2022/04/01 10:43:16;;;;;;;9.43;4.82;;;4.20;91.60;;;1.72;88.71;99681.97;5011223;28;20046;-84
2022/04/01 10:45:59;;;;;;;10.30;5.60;;;4.10;91.30;;;1.73;89.15;99698.91;5006805;28;20145;-83
2022/04/01 10:54:01;;;;;;;9.63;5.80;;;4.10;91.80;;;1.86;89.43;99704.75;4987592;28;20061;-83
2022/04/01 10:56:31;;;;;;;9.32;5.43;;;4.10;92.00;;;1.89;88.78;99691.06;4985595;28;20042;-83
2022/04/01 10:59:05;;;;;;;8.02;5.20;;;4.10;91.90;;;1.91;88.92;99701.66;4987302;28;20042;-83
2022/04/01 11:01:34;;;;;;;7.78;5.30;;;4.10;92.00;;;1.87;88.61;99693.06;4986458;28;20046;-83
2022/04/01 11:04:03;;;;;;;8.85;5.68;;;4.10;91.90;;;1.80;89.46;99713.41;4985882;28;20141;-83